EST,Max TemperatureF,Mean TemperatureF,Min TemperatureF,Max Dew PointF,MeanDew PointF,Min DewpointF,Max Humidity, Mean Humidity, Min Humidity, Max Sea Level PressureIn, Mean Sea Level PressureIn, Min Sea Level PressureIn, Max VisibilityMiles, Mean VisibilityMiles, Min VisibilityMiles, Max Wind SpeedMPH, Mean Wind SpeedMPH, Max Gust SpeedMPH,PrecipitationIn, CloudCover, Events, WindDirDegrees
2014-1-1,44,36,28,28,26,23,80,67,53,30.29,30.17,30.00,10,10,10,15,8,,0.00,0,,181
2014-1-2,37,27,15,34,20,7,93,81,68,30.39,30.08,29.87,10,7,1,24,10,32,0.03,6,,326
2014-1-3,24,16,8,12,9,3,92,72,54,30.54,30.41,30.23,10,10,10,14,7,20,0.00,0,,190
2014-1-4,41,30,19,21,16,10,68,53,42,30.22,30.11,30.00,10,10,10,29,12,38,0.00,2,,185
2014-1-5,39,26,12,36,26,5,93,77,49,30.06,29.84,29.58,10,6,0,30,8,44,0.49,7,,70
2014-1-6,10,2,-5,5,-10,-15,79,67,55,30.51,30.37,30.08,10,9,2,26,19,32,0.00,2,,287
2014-1-7,15,5,-5,5,-3,-11,78,67,53,30.53,30.45,30.35,10,10,10,14,8,18,0.00,1,,197
2014-1-8,32,23,14,25,15,5,86,67,59,30.46,30.41,30.35,10,10,10,14,8,17,0.00,2,,179
2014-1-9,35,30,26,30,27,23,93,83,65,30.47,30.38,30.25,10,8,2,12,5,,0.00,6,,134
2014-1-10,48,40,33,46,39,30,93,87,81,30.24,30.02,29.72,10,9,5,15,7,20,0.28,7,,158
2014-1-11,51,42,33,48,38,30,94,85,75,29.90,29.70,29.55,10,10,5,23,12,31,0.03,5,,236
2014-1-12,50,39,28,36,31,25,93,71,53,30.08,29.97,29.86,10,10,10,21,9,29,0.00,0,,200
2014-1-13,50,46,42,46,39,30,93,77,53,29.89,29.79,29.72,10,10,2,21,14,30,0.00,3,,210
2014-1-14,51,38,26,37,31,23,93,78,54,30.02,29.90,29.80,10,9,3,21,8,25,0.00,2,,271
2014-1-15,30,24,17,23,17,12,80,68,55,30.15,30.10,30.02,10,10,5,17,10,26,0.00,5,,292
2014-1-16,37,27,17,30,21,12,87,74,60,30.08,29.88,29.74,10,10,2,17,9,24,0.00,4,,190
2014-1-17,33,25,17,28,14,7,87,71,58,30.13,29.98,29.77,10,9,1,22,11,28,0.00,5,,270
2014-1-18,35,25,15,28,17,10,86,70,51,30.11,29.93,29.77,10,10,9,16,9,26,0.00,3,,197
2014-1-19,39,32,24,30,23,18,81,69,56,30.09,29.95,29.81,10,10,9,22,15,28,0.00,4,,243
2014-1-20,50,40,30,32,28,25,80,63,47,29.95,29.88,29.79,10,10,10,21,11,28,0.00,0,,283
2014-1-21,35,22,10,30,13,3,87,69,49,30.25,30.07,29.82,10,8,2,23,11,36,0.00,3,,336
2014-1-22,23,14,6,18,9,1,86,77,63,30.25,30.14,30.05,10,10,1,18,8,30,0.00,3,,219
2014-1-23,17,11,3,10,0,-6,85,66,53,30.70,30.53,30.18,10,10,3,22,12,30,0.00,1,,315
2014-1-24,26,12,0,7,1,-6,85,61,36,30.70,30.40,29.93,10,10,10,25,10,33,0.00,0,,214
2014-1-25,42,30,17,27,14,3,86,55,26,30.00,29.81,29.69,10,9,2,37,19,51,0.00,4,,265
2014-1-26,53,35,17,30,19,3,73,51,35,29.99,29.73,29.60,10,10,10,22,9,30,0.00,3,,213
2014-1-27,39,24,6,30,1,-6,69,51,38,30.47,30.23,29.70,10,10,10,28,16,45,0.00,1,,331
2014-1-28,15,8,1,-2,-7,-9,78,56,38,30.50,30.44,30.37,10,10,10,22,7,26,0.00,0,,348
2014-1-29,26,14,1,3,0,-6,85,56,34,30.42,30.36,30.27,10,10,10,15,6,23,0.00,0,,200
2014-1-30,37,26,14,9,5,1,58,42,26,30.27,30.11,29.94,10,10,10,22,10,31,0.00,0,,183
2014-1-31,44,36,28,34,15,7,93,45,27,30.14,30.08,30.03,10,9,2,13,8,,0.00,3,,164